North Miami, FL (33161)

3:54 AM EST on November 26, 2014 (GMT -0500)
Keystone Pt | Change Station
CLOSE
Current Station
Personal Weather Station
Location: Miami, FL
Elevation: 33 ft
Nearby Weather Stations

Elev 33 ft 25.89 °N, 80.16 °W | Updated 12 seconds ago

Mostly Cloudy
Mostly Cloudy
78.8 °F
Feels Like 83 °F
N
0.0
Wind Variable Wind from South
Gusts 2.0 mph

Today
High -- | Low -- °F
--% Chance of Precip.
Yesterday
High -- | Low -- °F
Precip. -- in
6:46 AM 5:29 PM
Waxing Crescent, 18% visible
Pressure 29.94 in
Visibility 10.0 miles
Clouds Mostly Cloudy 1000 ft
Mostly Cloudy 1600 ft
Heat Index 83 °F
Dew Point 79 °F
Humidity 100%
Rainfall -999.00 in
Snow Depth Not available.
UV 0 out of 12
Pollen 4.00 out of 12
Air Quality Not available.
Flu Activity Not available.
SPECI KOPF 260807Z AUTO 19007KT 10SM BKN010 BKN016 26/25 A2994 RMK AO2 T02610250

More Conditions Fewer Conditions

Pressure 29.94 in
Visibility 10.0 miles
Clouds Mostly Cloudy 1000 ft
Mostly Cloudy 1600 ft
Heat Index 83 °F
Dew Point 79 °F
Humidity 100%
Rainfall -999.00 in
Snow Depth Not available.
UV 0 out of 12
Pollen 4.00 out of 12
Air Quality Not available.
Flu Activity Not available.
SPECI KOPF 260807Z AUTO 19007KT 10SM BKN010 BKN016 26/25 A2994 RMK AO2 T02610250

More Conditions Fewer Conditions

Nowcast | as of 3:47 am EST on November 26, 2014

A few thunderstorms will affect the Gulf waters as well as the Atlantic waters beyond 20 nm of the coast. The main impacts will be a few lightning strikes and gusty winds to around 25 knots. Over land...showers will affect the Gulf Coast and Lake Okeechobee region. A thunderstorm is possible as well. For the East Coast Metro...mostly dry weather will continue with rain chances increasing towards sunrise.

×

10-Day Weather Forecast

Almanac

Astronomy

Nov. 26, 2014 Rise Set
Actual Time
Civil Twilight
Nautical Twilight
Astronomical Twilight
Moon
Length of Visible Light
Length of Day
Tomorrow will be .
, % of the Moon is Illuminated

Today's Extremes

State Highs State Lows

Community

WunderPhotos

Upload Photos

1,773,694 photos uploaded!

WunderBlogs® & News

Nearby

Air Quality

  Air Quality AQ Index Pollutant
Not available.

Snow Depth

Station Depth Elevation

Earthquake Activity

City Distance Mag. Time & Date
Minimum magnitude displayed is 2.5.

Coastal Water Temperatures

Place Temperature

Nearby Weather Stations